sensor_id;sensor_type;location;lat;lon;timestamp;P1;durP1;ratioP1;P2;durP2;ratioP2
7475;SDS011;3779;49.216;8.650;2022-12-29T00:02:38;1.70;;;1.40;;
7475;SDS011;3779;49.216;8.650;2022-12-29T00:05:24;2.30;;;1.50;;
7475;SDS011;3779;49.216;8.650;2022-12-29T00:08:10;4.10;;;1.53;;
7475;SDS011;3779;49.216;8.650;2022-12-29T00:10:57;1.50;;;1.40;;
7475;SDS011;3779;49.216;8.650;2022-12-29T00:13:42;1.60;;;1.50;;
7475;SDS011;3779;49.216;8.650;2022-12-29T00:16:47;2.47;;;1.57;;
7475;SDS011;3779;49.216;8.650;2022-12-29T00:19:33;2.93;;;1.37;;
7475;SDS011;3779;49.216;8.650;2022-12-29T00:22:37;2.63;;;1.57;;
7475;SDS011;3779;49.216;8.650;2022-12-29T00:25:42;2.17;;;1.30;;
7475;SDS011;3779;49.216;8.650;2022-12-29T00:28:46;2.97;;;1.37;;
7475;SDS011;3779;49.216;8.650;2022-12-29T00:31:51;3.20;;;1.40;;
7475;SDS011;3779;49.216;8.650;2022-12-29T00:34:55;3.30;;;1.37;;
7475;SDS011;3779;49.216;8.650;2022-12-29T00:37:53;1.50;;;1.40;;
7475;SDS011;3779;49.216;8.650;2022-12-29T00:41:01;3.93;;;1.60;;
7475;SDS011;3779;49.216;8.650;2022-12-29T00:44:06;2.03;;;1.53;;
7475;SDS011;3779;49.216;8.650;2022-12-29T00:46:55;1.60;;;1.50;;
7475;SDS011;3779;49.216;8.650;2022-12-29T00:49:41;2.57;;;1.90;;
7475;SDS011;3779;49.216;8.650;2022-12-29T00:52:27;1.70;;;1.40;;
7475;SDS011;3779;49.216;8.650;2022-12-29T00:55:13;2.47;;;1.50;;
7475;SDS011;3779;49.216;8.650;2022-12-29T00:57:59;3.53;;;1.63;;
7475;SDS011;3779;49.216;8.650;2022-12-29T01:00:45;1.93;;;1.40;;
7475;SDS011;3779;49.216;8.650;2022-12-29T01:03:33;2.10;;;1.50;;
7475;SDS011;3779;49.216;8.650;2022-12-29T01:06:20;2.53;;;1.40;;
7475;SDS011;3779;49.216;8.650;2022-12-29T01:09:06;2.43;;;1.40;;
7475;SDS011;3779;49.216;8.650;2022-12-29T01:12:11;2.43;;;1.20;;
7475;SDS011;3779;49.216;8.650;2022-12-29T01:14:58;1.93;;;1.50;;
7475;SDS011;3779;49.216;8.650;2022-12-29T01:17:44;2.90;;;1.50;;
7475;SDS011;3779;49.216;8.650;2022-12-29T01:20:30;1.43;;;1.33;;
7475;SDS011;3779;49.216;8.650;2022-12-29T01:23:16;2.97;;;1.40;;
7475;SDS011;3779;49.216;8.650;2022-12-29T01:26:10;1.77;;;1.50;;
7475;SDS011;3779;49.216;8.650;2022-12-29T01:29:00;2.20;;;1.20;;
7475;SDS011;3779;49.216;8.650;2022-12-29T01:31:48;2.13;;;1.50;;
7475;SDS011;3779;49.216;8.650;2022-12-29T01:34:34;4.83;;;1.53;;
7475;SDS011;3779;49.216;8.650;2022-12-29T01:37:22;2.20;;;1.40;;
7475;SDS011;3779;49.216;8.650;2022-12-29T01:40:08;2.83;;;1.53;;
7475;SDS011;3779;49.216;8.650;2022-12-29T01:42:54;1.80;;;1.40;;
7475;SDS011;3779;49.216;8.650;2022-12-29T01:45:45;2.50;;;1.50;;
7475;SDS011;3779;49.216;8.650;2022-12-29T01:48:35;2.27;;;1.47;;
7475;SDS011;3779;49.216;8.650;2022-12-29T01:51:22;2.97;;;1.57;;
7475;SDS011;3779;49.216;8.650;2022-12-29T01:54:12;2.17;;;1.60;;
7475;SDS011;3779;49.216;8.650;2022-12-29T01:57:13;1.73;;;1.30;;
7475;SDS011;3779;49.216;8.650;2022-12-29T02:00:07;2.37;;;1.30;;
7475;SDS011;3779;49.216;8.650;2022-12-29T02:02:58;3.10;;;1.60;;
7475;SDS011;3779;49.216;8.650;2022-12-29T02:05:48;1.67;;;1.30;;
7475;SDS011;3779;49.216;8.650;2022-12-29T02:08:57;1.63;;;1.43;;
7475;SDS011;3779;49.216;8.650;2022-12-29T02:11:44;2.97;;;1.60;;
7475;SDS011;3779;49.216;8.650;2022-12-29T02:14:29;2.07;;;1.40;;
7475;SDS011;3779;49.216;8.650;2022-12-29T02:17:23;1.70;;;1.40;;
7475;SDS011;3779;49.216;8.650;2022-12-29T02:20:37;2.27;;;1.20;;
7475;SDS011;3779;49.216;8.650;2022-12-29T02:26:34;2.83;;;1.57;;
7475;SDS011;3779;49.216;8.650;2022-12-29T02:38:36;3.30;;;1.57;;
7475;SDS011;3779;49.216;8.650;2022-12-29T02:41:33;2.90;;;1.63;;
7475;SDS011;3779;49.216;8.650;2022-12-29T02:48:08;2.13;;;1.40;;
7475;SDS011;3779;49.216;8.650;2022-12-29T02:50:56;1.93;;;1.40;;
7475;SDS011;3779;49.216;8.650;2022-12-29T02:53:48;2.97;;;1.60;;
7475;SDS011;3779;49.216;8.650;2022-12-29T02:56:54;1.50;;;1.40;;
7475;SDS011;3779;49.216;8.650;2022-12-29T02:59:41;3.07;;;1.60;;
7475;SDS011;3779;49.216;8.650;2022-12-29T03:08:55;3.23;;;1.50;;
7475;SDS011;3779;49.216;8.650;2022-12-29T03:15:52;2.73;;;1.37;;
7475;SDS011;3779;49.216;8.650;2022-12-29T03:18:57;1.43;;;1.20;;
7475;SDS011;3779;49.216;8.650;2022-12-29T03:22:08;1.73;;;1.30;;
7475;SDS011;3779;49.216;8.650;2022-12-29T03:25:23;1.20;;;1.10;;
7475;SDS011;3779;49.216;8.650;2022-12-29T03:28:18;2.90;;;1.50;;
7475;SDS011;3779;49.216;8.650;2022-12-29T03:31:13;2.53;;;1.40;;
7475;SDS011;3779;49.216;8.650;2022-12-29T03:34:00;1.50;;;1.40;;
7475;SDS011;3779;49.216;8.650;2022-12-29T03:36:58;1.67;;;1.33;;
7475;SDS011;3779;49.216;8.650;2022-12-29T03:39:50;3.00;;;1.57;;
7475;SDS011;3779;49.216;8.650;2022-12-29T03:42:36;3.87;;;1.67;;
7475;SDS011;3779;49.216;8.650;2022-12-29T03:45:24;1.73;;;1.20;;
7475;SDS011;3779;49.216;8.650;2022-12-29T03:48:10;1.60;;;1.27;;
7475;SDS011;3779;49.216;8.650;2022-12-29T03:50:59;1.53;;;1.30;;
7475;SDS011;3779;49.216;8.650;2022-12-29T03:53:46;2.07;;;1.30;;
7475;SDS011;3779;49.216;8.650;2022-12-29T03:56:33;1.30;;;1.20;;
7475;SDS011;3779;49.216;8.650;2022-12-29T03:59:21;2.80;;;1.20;;
7475;SDS011;3779;49.216;8.650;2022-12-29T04:02:07;2.63;;;1.27;;
7475;SDS011;3779;49.216;8.650;2022-12-29T04:04:54;1.63;;;1.20;;
7475;SDS011;3779;49.216;8.650;2022-12-29T04:07:40;1.20;;;1.10;;
7475;SDS011;3779;49.216;8.650;2022-12-29T04:10:27;1.30;;;1.20;;
7475;SDS011;3779;49.216;8.650;2022-12-29T04:13:16;1.10;;;1.00;;
7475;SDS011;3779;49.216;8.650;2022-12-29T04:16:02;3.03;;;1.30;;
7475;SDS011;3779;49.216;8.650;2022-12-29T04:18:48;2.67;;;1.27;;
7475;SDS011;3779;49.216;8.650;2022-12-29T04:21:35;1.77;;;1.40;;
7475;SDS011;3779;49.216;8.650;2022-12-29T04:24:21;1.77;;;1.40;;
7475;SDS011;3779;49.216;8.650;2022-12-29T04:27:08;1.60;;;1.50;;
7475;SDS011;3779;49.216;8.650;2022-12-29T04:30:07;1.57;;;1.40;;
7475;SDS011;3779;49.216;8.650;2022-12-29T04:33:20;1.67;;;1.30;;
7475;SDS011;3779;49.216;8.650;2022-12-29T04:36:07;2.57;;;1.30;;
7475;SDS011;3779;49.216;8.650;2022-12-29T04:38:55;2.97;;;1.20;;
7475;SDS011;3779;49.216;8.650;2022-12-29T04:41:41;1.97;;;1.40;;
7475;SDS011;3779;49.216;8.650;2022-12-29T04:44:31;2.30;;;1.20;;
7475;SDS011;3779;49.216;8.650;2022-12-29T04:47:29;2.07;;;1.33;;
7475;SDS011;3779;49.216;8.650;2022-12-29T04:50:21;1.57;;;1.27;;
7475;SDS011;3779;49.216;8.650;2022-12-29T04:53:15;1.83;;;1.40;;
7475;SDS011;3779;49.216;8.650;2022-12-29T04:56:03;1.30;;;1.20;;
7475;SDS011;3779;49.216;8.650;2022-12-29T04:58:49;1.67;;;1.50;;
7475;SDS011;3779;49.216;8.650;2022-12-29T05:01:34;2.40;;;1.33;;
7475;SDS011;3779;49.216;8.650;2022-12-29T05:04:20;2.00;;;1.27;;
7475;SDS011;3779;49.216;8.650;2022-12-29T05:07:07;1.30;;;1.20;;
7475;SDS011;3779;49.216;8.650;2022-12-29T05:09:53;1.27;;;1.17;;
7475;SDS011;3779;49.216;8.650;2022-12-29T05:12:39;1.00;;;1.00;;
7475;SDS011;3779;49.216;8.650;2022-12-29T05:15:26;1.87;;;1.30;;
7475;SDS011;3779;49.216;8.650;2022-12-29T05:18:12;1.10;;;1.03;;
7475;SDS011;3779;49.216;8.650;2022-12-29T05:20:58;2.53;;;1.50;;
7475;SDS011;3779;49.216;8.650;2022-12-29T05:23:44;2.53;;;1.30;;
7475;SDS011;3779;49.216;8.650;2022-12-29T05:26:30;1.60;;;1.50;;
7475;SDS011;3779;49.216;8.650;2022-12-29T05:29:23;1.40;;;1.30;;
7475;SDS011;3779;49.216;8.650;2022-12-29T05:32:09;1.70;;;1.50;;
7475;SDS011;3779;49.216;8.650;2022-12-29T05:34:55;1.60;;;1.50;;
7475;SDS011;3779;49.216;8.650;2022-12-29T05:37:42;1.90;;;1.20;;
7475;SDS011;3779;49.216;8.650;2022-12-29T05:40:28;1.90;;;1.63;;
7475;SDS011;3779;49.216;8.650;2022-12-29T05:43:18;1.40;;;1.30;;
7475;SDS011;3779;49.216;8.650;2022-12-29T05:46:27;2.13;;;1.40;;
7475;SDS011;3779;49.216;8.650;2022-12-29T05:49:24;1.53;;;1.30;;
7475;SDS011;3779;49.216;8.650;2022-12-29T05:52:39;1.63;;;1.30;;
7475;SDS011;3779;49.216;8.650;2022-12-29T05:55:25;2.70;;;1.50;;
7475;SDS011;3779;49.216;8.650;2022-12-29T05:58:13;3.57;;;1.50;;
7475;SDS011;3779;49.216;8.650;2022-12-29T06:01:00;1.50;;;1.40;;
7475;SDS011;3779;49.216;8.650;2022-12-29T06:03:46;2.53;;;1.67;;
7475;SDS011;3779;49.216;8.650;2022-12-29T06:06:31;2.30;;;1.40;;
7475;SDS011;3779;49.216;8.650;2022-12-29T06:09:18;1.30;;;1.20;;
7475;SDS011;3779;49.216;8.650;2022-12-29T06:12:04;2.80;;;1.80;;
7475;SDS011;3779;49.216;8.650;2022-12-29T06:14:51;1.70;;;1.60;;
7475;SDS011;3779;49.216;8.650;2022-12-29T06:17:37;1.97;;;1.60;;
7475;SDS011;3779;49.216;8.650;2022-12-29T06:20:24;3.70;;;1.87;;
7475;SDS011;3779;49.216;8.650;2022-12-29T06:23:11;2.43;;;1.60;;
7475;SDS011;3779;49.216;8.650;2022-12-29T06:26:17;2.00;;;1.70;;
7475;SDS011;3779;49.216;8.650;2022-12-29T06:29:05;2.57;;;1.50;;
7475;SDS011;3779;49.216;8.650;2022-12-29T06:31:53;3.40;;;1.40;;
7475;SDS011;3779;49.216;8.650;2022-12-29T06:34:43;1.70;;;1.60;;
7475;SDS011;3779;49.216;8.650;2022-12-29T06:37:30;1.80;;;1.70;;
7475;SDS011;3779;49.216;8.650;2022-12-29T06:40:16;2.77;;;1.50;;
7475;SDS011;3779;49.216;8.650;2022-12-29T06:43:21;2.00;;;1.37;;
7475;SDS011;3779;49.216;8.650;2022-12-29T06:46:27;1.30;;;1.20;;
7475;SDS011;3779;49.216;8.650;2022-12-29T06:49:13;2.70;;;1.53;;
7475;SDS011;3779;49.216;8.650;2022-12-29T06:51:59;1.73;;;1.63;;
7475;SDS011;3779;49.216;8.650;2022-12-29T06:54:48;2.40;;;1.87;;
7475;SDS011;3779;49.216;8.650;2022-12-29T06:57:35;2.00;;;1.30;;
7475;SDS011;3779;49.216;8.650;2022-12-29T07:00:21;1.90;;;1.60;;
7475;SDS011;3779;49.216;8.650;2022-12-29T07:03:07;1.40;;;1.30;;
7475;SDS011;3779;49.216;8.650;2022-12-29T07:05:53;1.93;;;1.60;;
7475;SDS011;3779;49.216;8.650;2022-12-29T07:08:39;2.20;;;1.50;;
7475;SDS011;3779;49.216;8.650;2022-12-29T07:11:25;4.30;;;1.57;;
7475;SDS011;3779;49.216;8.650;2022-12-29T07:14:11;3.00;;;1.53;;
7475;SDS011;3779;49.216;8.650;2022-12-29T07:16:57;1.50;;;1.40;;
7475;SDS011;3779;49.216;8.650;2022-12-29T07:19:43;1.93;;;1.73;;
7475;SDS011;3779;49.216;8.650;2022-12-29T07:22:29;1.50;;;1.40;;
7475;SDS011;3779;49.216;8.650;2022-12-29T07:25:16;1.80;;;1.67;;
7475;SDS011;3779;49.216;8.650;2022-12-29T07:28:02;2.40;;;1.60;;
7475;SDS011;3779;49.216;8.650;2022-12-29T07:30:49;3.43;;;1.80;;
7475;SDS011;3779;49.216;8.650;2022-12-29T07:33:35;1.63;;;1.30;;
7475;SDS011;3779;49.216;8.650;2022-12-29T07:36:20;2.17;;;1.50;;
7475;SDS011;3779;49.216;8.650;2022-12-29T07:39:06;2.87;;;1.60;;
7475;SDS011;3779;49.216;8.650;2022-12-29T07:41:52;3.13;;;1.70;;
7475;SDS011;3779;49.216;8.650;2022-12-29T07:44:39;2.40;;;1.67;;
7475;SDS011;3779;49.216;8.650;2022-12-29T07:47:48;2.40;;;1.50;;
7475;SDS011;3779;49.216;8.650;2022-12-29T07:50:35;1.70;;;1.60;;
7475;SDS011;3779;49.216;8.650;2022-12-29T07:53:22;1.80;;;1.57;;
7475;SDS011;3779;49.216;8.650;2022-12-29T07:56:08;1.30;;;1.20;;
7475;SDS011;3779;49.216;8.650;2022-12-29T07:58:53;2.60;;;1.60;;
7475;SDS011;3779;49.216;8.650;2022-12-29T08:01:39;1.50;;;1.33;;
7475;SDS011;3779;49.216;8.650;2022-12-29T08:04:26;2.03;;;1.80;;
7475;SDS011;3779;49.216;8.650;2022-12-29T08:07:11;2.53;;;1.53;;
7475;SDS011;3779;49.216;8.650;2022-12-29T08:09:58;1.60;;;1.50;;
7475;SDS011;3779;49.216;8.650;2022-12-29T08:12:44;4.17;;;1.80;;
7475;SDS011;3779;49.216;8.650;2022-12-29T08:15:30;2.53;;;1.70;;
7475;SDS011;3779;49.216;8.650;2022-12-29T08:18:15;2.30;;;1.57;;
7475;SDS011;3779;49.216;8.650;2022-12-29T08:21:02;2.17;;;1.60;;
7475;SDS011;3779;49.216;8.650;2022-12-29T08:23:49;1.83;;;1.50;;
7475;SDS011;3779;49.216;8.650;2022-12-29T08:26:35;1.27;;;1.17;;
7475;SDS011;3779;49.216;8.650;2022-12-29T08:29:21;2.37;;;1.60;;
7475;SDS011;3779;49.216;8.650;2022-12-29T08:32:07;2.47;;;1.30;;
7475;SDS011;3779;49.216;8.650;2022-12-29T08:34:53;3.23;;;1.70;;
7475;SDS011;3779;49.216;8.650;2022-12-29T08:37:39;3.17;;;1.60;;
7475;SDS011;3779;49.216;8.650;2022-12-29T08:40:24;2.30;;;1.40;;
7475;SDS011;3779;49.216;8.650;2022-12-29T08:43:10;1.80;;;1.50;;
7475;SDS011;3779;49.216;8.650;2022-12-29T08:45:59;5.33;;;2.07;;
7475;SDS011;3779;49.216;8.650;2022-12-29T08:48:45;1.80;;;1.33;;
7475;SDS011;3779;49.216;8.650;2022-12-29T08:51:31;4.53;;;1.50;;
7475;SDS011;3779;49.216;8.650;2022-12-29T08:54:17;2.60;;;1.20;;
7475;SDS011;3779;49.216;8.650;2022-12-29T08:57:04;2.43;;;1.70;;
7475;SDS011;3779;49.216;8.650;2022-12-29T08:59:56;2.73;;;1.83;;
7475;SDS011;3779;49.216;8.650;2022-12-29T09:02:42;3.13;;;1.67;;
7475;SDS011;3779;49.216;8.650;2022-12-29T09:05:28;3.30;;;1.63;;
7475;SDS011;3779;49.216;8.650;2022-12-29T09:08:14;2.63;;;1.67;;
7475;SDS011;3779;49.216;8.650;2022-12-29T09:11:08;2.63;;;1.60;;
7475;SDS011;3779;49.216;8.650;2022-12-29T09:13:56;1.53;;;1.43;;
7475;SDS011;3779;49.216;8.650;2022-12-29T09:16:42;1.57;;;1.47;;
7475;SDS011;3779;49.216;8.650;2022-12-29T09:19:47;2.13;;;1.70;;
7475;SDS011;3779;49.216;8.650;2022-12-29T09:22:34;2.63;;;1.57;;
7475;SDS011;3779;49.216;8.650;2022-12-29T09:25:20;2.67;;;1.60;;
7475;SDS011;3779;49.216;8.650;2022-12-29T09:28:09;3.40;;;1.60;;
7475;SDS011;3779;49.216;8.650;2022-12-29T09:30:55;3.00;;;1.60;;
7475;SDS011;3779;49.216;8.650;2022-12-29T09:33:41;2.30;;;1.60;;
7475;SDS011;3779;49.216;8.650;2022-12-29T09:36:27;3.03;;;1.70;;
7475;SDS011;3779;49.216;8.650;2022-12-29T09:39:13;1.90;;;1.70;;
7475;SDS011;3779;49.216;8.650;2022-12-29T09:42:11;3.70;;;1.37;;
7475;SDS011;3779;49.216;8.650;2022-12-29T09:45:12;2.10;;;1.70;;
7475;SDS011;3779;49.216;8.650;2022-12-29T09:48:03;3.53;;;1.47;;
7475;SDS011;3779;49.216;8.650;2022-12-29T09:50:54;1.60;;;1.30;;
7475;SDS011;3779;49.216;8.650;2022-12-29T09:53:44;2.60;;;1.70;;
7475;SDS011;3779;49.216;8.650;2022-12-29T09:56:51;1.73;;;1.37;;
7475;SDS011;3779;49.216;8.650;2022-12-29T09:59:39;1.33;;;1.23;;
7475;SDS011;3779;49.216;8.650;2022-12-29T10:15:28;1.80;;;1.47;;
7475;SDS011;3779;49.216;8.650;2022-12-29T10:18:27;2.53;;;1.47;;
7475;SDS011;3779;49.216;8.650;2022-12-29T10:24:27;3.20;;;1.73;;
7475;SDS011;3779;49.216;8.650;2022-12-29T10:27:14;1.97;;;1.50;;
7475;SDS011;3779;49.216;8.650;2022-12-29T10:30:02;1.93;;;1.67;;
7475;SDS011;3779;49.216;8.650;2022-12-29T10:32:50;3.70;;;1.40;;
7475;SDS011;3779;49.216;8.650;2022-12-29T10:35:43;3.37;;;1.93;;
7475;SDS011;3779;49.216;8.650;2022-12-29T10:38:34;1.47;;;1.37;;
7475;SDS011;3779;49.216;8.650;2022-12-29T10:41:53;1.50;;;1.40;;
7475;SDS011;3779;49.216;8.650;2022-12-29T10:44:56;2.63;;;1.60;;
7475;SDS011;3779;49.216;8.650;2022-12-29T10:47:55;1.67;;;1.50;;
7475;SDS011;3779;49.216;8.650;2022-12-29T10:50:49;2.60;;;1.33;;
7475;SDS011;3779;49.216;8.650;2022-12-29T10:53:46;2.23;;;1.40;;
7475;SDS011;3779;49.216;8.650;2022-12-29T10:56:52;2.17;;;1.40;;
7475;SDS011;3779;49.216;8.650;2022-12-29T10:59:50;2.70;;;1.17;;
7475;SDS011;3779;49.216;8.650;2022-12-29T11:03:24;3.20;;;1.27;;
7475;SDS011;3779;49.216;8.650;2022-12-29T11:06:40;1.23;;;1.07;;
7475;SDS011;3779;49.216;8.650;2022-12-29T11:09:27;2.80;;;1.20;;
7475;SDS011;3779;49.216;8.650;2022-12-29T11:17:56;1.37;;;1.10;;
7475;SDS011;3779;49.216;8.650;2022-12-29T11:20:44;1.20;;;1.10;;
7475;SDS011;3779;49.216;8.650;2022-12-29T11:26:24;1.83;;;1.20;;
7475;SDS011;3779;49.216;8.650;2022-12-29T11:32:10;1.30;;;1.23;;
7475;SDS011;3779;49.216;8.650;2022-12-29T11:35:17;1.43;;;1.30;;
7475;SDS011;3779;49.216;8.650;2022-12-29T11:38:23;1.57;;;1.47;;
7475;SDS011;3779;49.216;8.650;2022-12-29T11:41:33;2.33;;;1.57;;
7475;SDS011;3779;49.216;8.650;2022-12-29T11:44:19;2.17;;;1.50;;
7475;SDS011;3779;49.216;8.650;2022-12-29T11:47:05;2.63;;;1.87;;
7475;SDS011;3779;49.216;8.650;2022-12-29T11:49:58;1.63;;;1.53;;
7475;SDS011;3779;49.216;8.650;2022-12-29T11:52:46;2.73;;;1.57;;
7475;SDS011;3779;49.216;8.650;2022-12-29T11:55:35;1.70;;;1.47;;
7475;SDS011;3779;49.216;8.650;2022-12-29T11:58:33;1.73;;;1.47;;
7475;SDS011;3779;49.216;8.650;2022-12-29T12:01:33;2.77;;;1.67;;
7475;SDS011;3779;49.216;8.650;2022-12-29T12:04:23;2.03;;;1.63;;
7475;SDS011;3779;49.216;8.650;2022-12-29T12:07:20;2.20;;;1.40;;
7475;SDS011;3779;49.216;8.650;2022-12-29T12:10:18;2.73;;;1.50;;
7475;SDS011;3779;49.216;8.650;2022-12-29T12:16:47;1.63;;;1.30;;
7475;SDS011;3779;49.216;8.650;2022-12-29T12:19:58;2.40;;;1.40;;
7475;SDS011;3779;49.216;8.650;2022-12-29T12:26:10;2.13;;;1.33;;
7475;SDS011;3779;49.216;8.650;2022-12-29T12:29:11;2.33;;;1.50;;
7475;SDS011;3779;49.216;8.650;2022-12-29T12:32:05;1.93;;;1.50;;
7475;SDS011;3779;49.216;8.650;2022-12-29T12:35:02;1.90;;;1.70;;
7475;SDS011;3779;49.216;8.650;2022-12-29T12:37:52;2.07;;;1.50;;
7475;SDS011;3779;49.216;8.650;2022-12-29T12:44:06;2.03;;;1.43;;
7475;SDS011;3779;49.216;8.650;2022-12-29T12:53:40;3.57;;;1.70;;
7475;SDS011;3779;49.216;8.650;2022-12-29T13:09:34;1.60;;;1.50;;
7475;SDS011;3779;49.216;8.650;2022-12-29T13:15:51;1.30;;;1.20;;
7475;SDS011;3779;49.216;8.650;2022-12-29T13:18:52;1.67;;;1.17;;
7475;SDS011;3779;49.216;8.650;2022-12-29T13:28:32;2.27;;;1.03;;
7475;SDS011;3779;49.216;8.650;2022-12-29T13:38:11;2.23;;;1.07;;
7475;SDS011;3779;49.216;8.650;2022-12-29T13:41:04;0.97;;;0.97;;
7475;SDS011;3779;49.216;8.650;2022-12-29T13:43:56;1.77;;;1.13;;
7475;SDS011;3779;49.216;8.650;2022-12-29T13:46:44;2.43;;;1.30;;
7475;SDS011;3779;49.216;8.650;2022-12-29T13:49:31;2.83;;;1.27;;
7475;SDS011;3779;49.216;8.650;2022-12-29T13:52:24;1.77;;;1.20;;
7475;SDS011;3779;49.216;8.650;2022-12-29T13:58:20;2.17;;;1.17;;
7475;SDS011;3779;49.216;8.650;2022-12-29T14:01:26;1.00;;;1.00;;
7475;SDS011;3779;49.216;8.650;2022-12-29T14:04:26;2.17;;;1.30;;
7475;SDS011;3779;49.216;8.650;2022-12-29T14:07:15;1.03;;;0.90;;
7475;SDS011;3779;49.216;8.650;2022-12-29T14:10:03;1.20;;;1.10;;
7475;SDS011;3779;49.216;8.650;2022-12-29T14:12:49;1.30;;;1.20;;
7475;SDS011;3779;49.216;8.650;2022-12-29T14:15:37;1.60;;;1.20;;
7475;SDS011;3779;49.216;8.650;2022-12-29T14:18:28;1.90;;;1.30;;
7475;SDS011;3779;49.216;8.650;2022-12-29T14:21:18;1.13;;;1.13;;
7475;SDS011;3779;49.216;8.650;2022-12-29T14:24:38;1.17;;;1.00;;
7475;SDS011;3779;49.216;8.650;2022-12-29T14:33:34;1.20;;;0.93;;
7475;SDS011;3779;49.216;8.650;2022-12-29T14:36:21;1.77;;;1.10;;
7475;SDS011;3779;49.216;8.650;2022-12-29T14:42:19;1.20;;;1.10;;
7475;SDS011;3779;49.216;8.650;2022-12-29T14:45:20;1.50;;;0.90;;
7475;SDS011;3779;49.216;8.650;2022-12-29T14:48:20;1.37;;;0.83;;
7475;SDS011;3779;49.216;8.650;2022-12-29T14:51:31;1.23;;;0.90;;
7475;SDS011;3779;49.216;8.650;2022-12-29T14:57:26;1.67;;;0.90;;
7475;SDS011;3779;49.216;8.650;2022-12-29T15:03:10;1.33;;;1.00;;
7475;SDS011;3779;49.216;8.650;2022-12-29T15:06:08;1.60;;;0.80;;
7475;SDS011;3779;49.216;8.650;2022-12-29T15:11:48;2.13;;;1.40;;
7475;SDS011;3779;49.216;8.650;2022-12-29T15:14:39;3.47;;;1.57;;
7475;SDS011;3779;49.216;8.650;2022-12-29T15:17:35;2.33;;;1.57;;
7475;SDS011;3779;49.216;8.650;2022-12-29T15:20:27;2.33;;;1.20;;
7475;SDS011;3779;49.216;8.650;2022-12-29T15:23:15;1.97;;;1.17;;
7475;SDS011;3779;49.216;8.650;2022-12-29T15:28:49;5.17;;;2.60;;
7475;SDS011;3779;49.216;8.650;2022-12-29T15:31:36;2.87;;;2.43;;
7475;SDS011;3779;49.216;8.650;2022-12-29T15:34:32;3.07;;;2.30;;
7475;SDS011;3779;49.216;8.650;2022-12-29T15:37:36;3.30;;;2.20;;
7475;SDS011;3779;49.216;8.650;2022-12-29T15:40:23;2.27;;;2.07;;
7475;SDS011;3779;49.216;8.650;2022-12-29T15:46:00;3.07;;;1.70;;
7475;SDS011;3779;49.216;8.650;2022-12-29T15:48:47;2.33;;;1.93;;
7475;SDS011;3779;49.216;8.650;2022-12-29T15:51:34;2.17;;;1.57;;
7475;SDS011;3779;49.216;8.650;2022-12-29T15:54:31;2.38;;;1.70;;
7475;SDS011;3779;49.216;8.650;2022-12-29T15:57:25;1.90;;;1.70;;
7475;SDS011;3779;49.216;8.650;2022-12-29T16:00:21;1.43;;;1.30;;
7475;SDS011;3779;49.216;8.650;2022-12-29T16:03:18;2.15;;;1.50;;
7475;SDS011;3779;49.216;8.650;2022-12-29T16:09:17;1.60;;;1.50;;
7475;SDS011;3779;49.216;8.650;2022-12-29T16:12:04;1.37;;;1.10;;
7475;SDS011;3779;49.216;8.650;2022-12-29T16:14:54;2.60;;;1.77;;
7475;SDS011;3779;49.216;8.650;2022-12-29T16:17:49;2.07;;;1.47;;
7475;SDS011;3779;49.216;8.650;2022-12-29T16:20:39;2.00;;;1.80;;
7475;SDS011;3779;49.216;8.650;2022-12-29T16:23:28;2.80;;;1.90;;
7475;SDS011;3779;49.216;8.650;2022-12-29T16:26:18;2.87;;;1.70;;
7475;SDS011;3779;49.216;8.650;2022-12-29T16:29:06;3.00;;;1.50;;
7475;SDS011;3779;49.216;8.650;2022-12-29T16:31:54;3.27;;;2.13;;
7475;SDS011;3779;49.216;8.650;2022-12-29T16:34:45;2.37;;;1.37;;
7475;SDS011;3779;49.216;8.650;2022-12-29T16:37:32;2.17;;;1.50;;
7475;SDS011;3779;49.216;8.650;2022-12-29T16:40:25;2.03;;;1.48;;
7475;SDS011;3779;49.216;8.650;2022-12-29T16:43:22;2.30;;;1.23;;
7475;SDS011;3779;49.216;8.650;2022-12-29T16:46:18;1.97;;;1.40;;
7475;SDS011;3779;49.216;8.650;2022-12-29T16:49:14;1.73;;;1.40;;
7475;SDS011;3779;49.216;8.650;2022-12-29T16:52:13;2.03;;;1.50;;
7475;SDS011;3779;49.216;8.650;2022-12-29T16:55:03;2.87;;;1.70;;
7475;SDS011;3779;49.216;8.650;2022-12-29T16:57:51;2.07;;;1.50;;
7475;SDS011;3779;49.216;8.650;2022-12-29T17:00:41;2.20;;;1.63;;
7475;SDS011;3779;49.216;8.650;2022-12-29T17:03:32;2.87;;;1.60;;
7475;SDS011;3779;49.216;8.650;2022-12-29T17:06:23;2.73;;;1.40;;
7475;SDS011;3779;49.216;8.650;2022-12-29T17:09:16;2.23;;;1.40;;
7475;SDS011;3779;49.216;8.650;2022-12-29T17:12:05;1.70;;;1.30;;
7475;SDS011;3779;49.216;8.650;2022-12-29T17:14:54;2.70;;;1.37;;
7475;SDS011;3779;49.216;8.650;2022-12-29T17:17:43;3.27;;;1.60;;
7475;SDS011;3779;49.216;8.650;2022-12-29T17:20:31;2.83;;;2.30;;
7475;SDS011;3779;49.216;8.650;2022-12-29T17:23:17;2.90;;;1.80;;
7475;SDS011;3779;49.216;8.650;2022-12-29T17:26:03;1.70;;;1.50;;
7475;SDS011;3779;49.216;8.650;2022-12-29T17:28:49;2.40;;;1.60;;
7475;SDS011;3779;49.216;8.650;2022-12-29T17:31:35;3.57;;;2.10;;
7475;SDS011;3779;49.216;8.650;2022-12-29T17:34:21;2.47;;;2.00;;
7475;SDS011;3779;49.216;8.650;2022-12-29T17:37:26;1.90;;;1.70;;
7475;SDS011;3779;49.216;8.650;2022-12-29T17:40:19;3.17;;;2.20;;
7475;SDS011;3779;49.216;8.650;2022-12-29T17:43:13;3.10;;;2.30;;
7475;SDS011;3779;49.216;8.650;2022-12-29T17:46:00;2.17;;;1.87;;
7475;SDS011;3779;49.216;8.650;2022-12-29T17:48:45;3.27;;;2.13;;
7475;SDS011;3779;49.216;8.650;2022-12-29T17:51:31;1.73;;;1.60;;
7475;SDS011;3779;49.216;8.650;2022-12-29T17:54:18;2.20;;;1.80;;
7475;SDS011;3779;49.216;8.650;2022-12-29T17:57:08;3.40;;;2.30;;
7475;SDS011;3779;49.216;8.650;2022-12-29T17:59:57;3.53;;;2.30;;
7475;SDS011;3779;49.216;8.650;2022-12-29T18:02:42;2.10;;;1.90;;
7475;SDS011;3779;49.216;8.650;2022-12-29T18:05:29;2.90;;;2.17;;
7475;SDS011;3779;49.216;8.650;2022-12-29T18:08:15;3.17;;;1.70;;
7475;SDS011;3779;49.216;8.650;2022-12-29T18:11:01;2.87;;;2.40;;
7475;SDS011;3779;49.216;8.650;2022-12-29T18:13:48;2.70;;;2.30;;
7475;SDS011;3779;49.216;8.650;2022-12-29T18:16:34;2.03;;;1.63;;
7475;SDS011;3779;49.216;8.650;2022-12-29T18:19:20;3.20;;;2.27;;
7475;SDS011;3779;49.216;8.650;2022-12-29T18:22:07;2.80;;;2.10;;
7475;SDS011;3779;49.216;8.650;2022-12-29T18:24:53;3.63;;;2.07;;
7475;SDS011;3779;49.216;8.650;2022-12-29T18:27:39;2.95;;;2.28;;
7475;SDS011;3779;49.216;8.650;2022-12-29T18:30:25;2.77;;;1.80;;
7475;SDS011;3779;49.216;8.650;2022-12-29T18:33:14;3.00;;;1.97;;
7475;SDS011;3779;49.216;8.650;2022-12-29T18:36:02;3.60;;;2.00;;
7475;SDS011;3779;49.216;8.650;2022-12-29T18:38:49;2.37;;;1.77;;
7475;SDS011;3779;49.216;8.650;2022-12-29T18:41:37;3.37;;;2.37;;
7475;SDS011;3779;49.216;8.650;2022-12-29T18:44:23;4.40;;;2.23;;
7475;SDS011;3779;49.216;8.650;2022-12-29T18:47:09;2.93;;;2.10;;
7475;SDS011;3779;49.216;8.650;2022-12-29T18:49:56;3.17;;;2.47;;
7475;SDS011;3779;49.216;8.650;2022-12-29T18:52:43;3.10;;;2.40;;
7475;SDS011;3779;49.216;8.650;2022-12-29T18:55:30;3.70;;;2.10;;
7475;SDS011;3779;49.216;8.650;2022-12-29T18:58:16;3.83;;;2.30;;
7475;SDS011;3779;49.216;8.650;2022-12-29T19:01:02;3.70;;;2.30;;
7475;SDS011;3779;49.216;8.650;2022-12-29T19:03:48;3.73;;;2.30;;
7475;SDS011;3779;49.216;8.650;2022-12-29T19:06:35;2.83;;;1.83;;
7475;SDS011;3779;49.216;8.650;2022-12-29T19:09:21;3.63;;;2.47;;
7475;SDS011;3779;49.216;8.650;2022-12-29T19:12:12;4.43;;;2.57;;
7475;SDS011;3779;49.216;8.650;2022-12-29T19:15:00;2.93;;;1.73;;
7475;SDS011;3779;49.216;8.650;2022-12-29T19:17:52;2.63;;;2.00;;
7475;SDS011;3779;49.216;8.650;2022-12-29T19:20:41;3.80;;;2.13;;
7475;SDS011;3779;49.216;8.650;2022-12-29T19:23:28;2.57;;;1.77;;
7475;SDS011;3779;49.216;8.650;2022-12-29T19:26:24;2.40;;;1.60;;
7475;SDS011;3779;49.216;8.650;2022-12-29T19:29:14;1.40;;;1.30;;
7475;SDS011;3779;49.216;8.650;2022-12-29T19:32:00;2.70;;;1.60;;
7475;SDS011;3779;49.216;8.650;2022-12-29T19:34:46;2.10;;;1.50;;
7475;SDS011;3779;49.216;8.650;2022-12-29T19:37:33;2.50;;;1.67;;
7475;SDS011;3779;49.216;8.650;2022-12-29T19:40:21;4.10;;;1.60;;
7475;SDS011;3779;49.216;8.650;2022-12-29T19:43:09;1.93;;;1.40;;
7475;SDS011;3779;49.216;8.650;2022-12-29T19:45:56;1.90;;;1.60;;
7475;SDS011;3779;49.216;8.650;2022-12-29T19:48:42;2.07;;;1.60;;
7475;SDS011;3779;49.216;8.650;2022-12-29T19:51:28;3.23;;;1.83;;
7475;SDS011;3779;49.216;8.650;2022-12-29T19:54:14;1.47;;;1.37;;